Time;durP1;ratioP1;P1;durP2;ratioP2;P2;SDS_P1;SDS_P2;PMS_P1;PMS_P2;Temp;Humidity;BMP_temperature;BMP_pressure;BME280_temperature;BME280_humidity;BME280_pressure;Samples;Min_cycle;Max_cycle;Signal;HPM_P1;HPM_P2
2022/05/29 00:02:08;;;;;;;15.10;4.45;;;;;;;5.01;100.00;161877.41;5071629;28;20040;-58
2022/05/29 00:04:34;;;;;;;9.27;5.45;;;;;;;5.02;100.00;161880.13;5073235;28;20017;-58
2022/05/29 00:07:00;;;;;;;7.32;4.35;;;;;;;5.00;100.00;161874.72;5071129;28;20111;-58
2022/05/29 00:09:35;;;;;;;10.02;4.28;;;;;;;4.97;100.00;161866.63;5073277;28;20025;-58
2022/05/29 00:12:03;;;;;;;14.20;5.07;;;;;;;4.94;100.00;161858.59;5071333;28;20047;-58
2022/05/29 00:14:29;;;;;;;11.30;4.88;;;;;;;4.91;100.00;161851.81;5072704;28;20031;-58
2022/05/29 00:16:56;;;;;;;6.22;4.38;;;;;;;4.92;100.00;161854.53;5071223;28;20041;-58
2022/05/29 00:19:22;;;;;;;10.75;4.80;;;;;;;4.92;100.00;161853.19;5072974;28;20020;-58
2022/05/29 00:21:47;;;;;;;8.05;5.55;;;;;;;4.93;100.00;161855.91;5070658;28;20098;-58
2022/05/29 00:24:13;;;;;;;16.52;8.02;;;;;;;4.99;100.00;161870.69;5072547;28;20456;-58
2022/05/29 00:26:38;;;;;;;15.40;7.63;;;;;;;4.98;100.00;161869.31;5071321;28;20114;-58
2022/05/29 00:29:04;;;;;;;19.35;7.97;;;;;;;4.89;100.00;161845.09;5072362;28;20418;-59
2022/05/29 00:31:29;;;;;;;7.63;4.78;;;;;;;4.91;100.00;161850.50;5071003;28;20036;-58
2022/05/29 00:33:54;;;;;;;8.73;5.50;;;;;;;4.89;100.00;161845.09;5072644;28;20082;-58
2022/05/29 00:36:20;;;;;;;11.20;6.63;;;;;;;4.88;100.00;161842.41;5070901;28;20472;-58
2022/05/29 00:38:47;;;;;;;20.10;8.43;;;;;;;4.87;100.00;161839.78;5072359;28;20380;-58
2022/05/29 00:41:22;;;;;;;12.10;6.30;;;;;;;4.87;100.00;161839.78;5071100;28;20124;-58
2022/05/29 00:44:06;;;;;;;6.85;5.03;;;;;;;4.86;100.00;161837.06;5071803;28;20499;-58
2022/05/29 00:46:34;;;;;;;14.32;6.35;;;;;;;4.86;100.00;161837.06;5070834;28;20087;-58
2022/05/29 00:48:59;;;;;;;9.73;6.38;;;;;;;4.81;100.00;161823.59;5071875;28;20468;-58
2022/05/29 00:51:25;;;;;;;10.32;6.10;;;;;;;4.78;100.00;161816.88;5070516;28;20044;-58
2022/05/29 00:53:50;;;;;;;17.05;7.85;;;;;;;4.76;100.00;161812.84;5071510;28;20021;-58
2022/05/29 00:56:16;;;;;;;9.52;5.32;;;;;;;4.79;100.00;161818.25;5070487;28;20041;-58
2022/05/29 00:58:42;;;;;;;11.35;6.25;;;;;;;4.84;100.00;161831.69;5071543;28;20031;-58
2022/05/29 01:01:07;;;;;;;24.60;5.72;;;;;;;4.89;100.00;161845.09;5070767;28;20071;-58
2022/05/29 01:03:32;;;;;;;13.65;7.78;;;;;;;4.97;100.00;161866.63;5072208;28;20021;-58
2022/05/29 01:05:58;;;;;;;7.68;5.72;;;;;;;5.05;100.00;161888.16;5069633;28;20407;-58
2022/05/29 01:08:32;;;;;;;20.95;6.53;;;;;;;5.12;100.00;161905.66;5071791;28;20025;-58
2022/05/29 01:11:16;;;;;;;14.13;6.15;;;;;;;5.18;100.00;161921.78;5070259;28;20036;-58
2022/05/29 01:13:57;;;;;;;13.55;6.88;;;;;;;5.26;100.00;161941.94;5071202;28;20025;-58
2022/05/29 01:16:31;;;;;;;12.40;6.80;;;;;;;5.35;100.00;161966.16;5070239;28;20055;-58
2022/05/29 01:19:25;;;;;;;15.98;7.25;;;;;;;5.45;100.00;161990.41;5071735;28;20038;-58
2022/05/29 01:22:18;;;;;;;22.90;6.65;;;;;;;5.52;100.00;162010.56;5070012;28;20040;-58
2022/05/29 01:25:01;;;;;;;10.65;5.60;;;;;;;5.59;100.00;162028.06;5071183;28;20488;-58
2022/05/29 01:28:04;;;;;;;18.50;6.50;;;;;;;5.67;100.00;162048.22;5069606;28;20075;-58
2022/05/29 01:30:34;;;;;;;12.10;6.53;;;;;;;5.71;100.00;162060.34;5070101;28;20041;-58
2022/05/29 01:33:06;;;;;;;17.80;6.53;;;;;;;5.74;100.00;162065.72;5071040;28;20025;-58
2022/05/29 01:35:44;;;;;;;19.15;7.03;;;;;;;5.80;100.00;162081.88;5069832;28;20064;-58
2022/05/29 01:38:15;;;;;;;12.00;7.03;;;;;;;5.85;100.00;162095.31;5071154;28;20111;-58
2022/05/29 01:40:53;;;;;;;13.65;6.35;;;;;;;5.90;100.00;162108.81;5069666;28;20056;-59
2022/05/29 01:43:34;;;;;;;12.57;5.80;;;;;;;5.99;100.00;162133.09;5070882;28;20136;-58
2022/05/29 01:46:29;;;;;;;10.48;6.70;;;;;;;6.09;100.00;162157.28;5069443;28;20224;-58
2022/05/29 01:49:19;;;;;;;15.77;6.35;;;;;;;6.18;100.00;162181.50;5070839;28;20020;-58
2022/05/29 01:51:56;;;;;;;16.70;6.60;;;;;;;6.27;100.00;162205.75;5069392;28;20062;-58
2022/05/29 01:54:42;;;;;;;11.80;7.60;;;;;;;6.37;100.00;162230.00;5070735;28;20442;-58
2022/05/29 01:57:11;;;;;;;8.27;5.97;;;;;;;-146.58;100.00;69501.63;5069267;28;20303;-58
2022/05/29 01:59:57;;;;;;;12.57;5.78;;;;;;;6.37;100.00;162230.00;5070947;28;20040;-58
2022/05/29 02:02:40;;;;;;;12.45;5.30;;;;;;;6.66;100.00;162308.03;5068746;28;20041;-58
2022/05/29 02:05:11;;;;;;;14.75;7.07;;;;;;;6.77;100.00;162334.97;5069229;28;20037;-58
2022/05/29 02:07:48;;;;;;;10.90;6.68;;;;;;;6.86;100.00;162359.22;5070728;28;20032;-58
2022/05/29 02:10:55;;;;;;;11.88;6.55;;;;;;;6.97;100.00;162387.50;5069354;28;20183;-58
2022/05/29 02:13:28;;;;;;;15.13;5.57;;;;;;;7.03;100.00;162402.31;5027938;28;20068;-58
2022/05/29 02:16:04;;;;;;;15.77;6.68;;;;;;;7.07;100.00;162414.44;5026788;28;20053;-58
2022/05/29 02:18:38;;;;;;;10.00;6.70;;;;;;;7.12;100.00;162426.53;5053419;28;20078;-58
2022/05/29 02:21:08;;;;;;;10.75;6.20;;;;;;;7.18;100.00;162442.72;5068928;28;20629;-58
2022/05/29 02:23:41;;;;;;;11.60;5.57;;;;;;;7.23;100.00;162456.19;5070760;28;20078;-58
2022/05/29 02:26:11;;;;;;;11.00;6.72;;;;;;;7.25;100.00;162461.59;5068696;28;20053;-58
2022/05/29 02:28:44;;;;;;;16.35;5.68;;;;;;;7.26;100.00;162464.22;5071030;28;20111;-58
2022/05/29 02:31:31;;;;;;;14.93;5.78;;;;;;;7.28;100.00;162469.63;5069190;28;20499;-58
2022/05/29 02:34:04;;;;;;;10.73;5.68;;;;;;;7.32;100.00;162477.75;5070382;28;20021;-58
2022/05/29 02:36:45;;;;;;;11.73;7.07;;;;;;;7.34;100.00;162483.09;5069079;28;20036;-58
2022/05/29 02:39:22;;;;;;;9.77;5.80;;;;;;;7.34;100.00;162483.09;5070687;28;20033;-58
2022/05/29 02:42:03;;;;;;;6.57;5.55;;;;;;;7.36;100.00;162488.50;5068567;28;20109;-58
2022/05/29 02:44:50;;;;;;;10.45;5.72;;;;;;;7.37;100.00;162491.19;5070788;28;20024;-58
2022/05/29 02:47:15;;;;;;;9.85;4.95;;;;;;;7.39;100.00;162496.59;5068947;28;20040;-58
2022/05/29 02:50:13;;;;;;;12.45;7.60;;;;;;;7.43;100.00;162507.34;5070103;28;20318;-58
2022/05/29 02:52:39;;;;;;;11.25;5.30;;;;;;;7.43;100.00;162507.34;5068837;28;20530;-58
2022/05/29 02:55:04;;;;;;;15.32;4.97;;;;;;;7.45;100.00;162512.75;5069196;28;20028;-57
2022/05/29 02:57:30;;;;;;;6.28;5.05;;;;;;;7.47;100.00;162519.47;5069956;28;20099;-58
2022/05/29 03:00:02;;;;;;;11.18;4.80;;;;;;;7.47;100.00;162518.16;5070078;28;20029;-58
2022/05/29 03:03:17;;;;;;;8.98;4.97;;;;;;;7.50;100.00;162526.19;5068592;28;20392;-58
2022/05/29 03:05:59;;;;;;;13.50;6.28;;;;;;;7.52;100.00;162530.28;5068698;28;20424;-58
2022/05/29 03:08:35;;;;;;;12.15;5.28;;;;;;;7.52;100.00;162531.59;5070244;28;20020;-58
2022/05/29 03:11:15;;;;;;;11.45;5.22;;;;;;;7.57;100.00;162545.06;5068188;28;20118;-58
2022/05/29 03:13:53;;;;;;;13.00;5.18;;;;;;;7.56;100.00;162542.38;5070041;28;20074;-57
2022/05/29 03:16:36;;;;;;;8.15;5.18;;;;;;;7.61;100.00;162554.50;5068836;28;20124;-58
2022/05/29 03:19:13;;;;;;;9.50;4.97;;;;;;;7.63;100.00;162561.22;5069946;28;20490;-58
2022/05/29 03:21:49;;;;;;;9.13;4.80;;;;;;;7.64;100.00;162562.59;5068346;28;20041;-58
2022/05/29 03:24:34;;;;;;;10.02;5.10;;;;;;;7.67;100.00;162570.66;5070149;28;20051;-58
2022/05/29 03:27:08;;;;;;;10.02;6.15;;;;;;;7.68;100.00;162573.34;5068145;28;20036;-58
2022/05/29 03:29:45;;;;;;;11.88;5.63;;;;;;;7.70;100.00;162577.44;5070378;28;20031;-58
2022/05/29 03:32:11;;;;;;;11.85;5.68;;;;;;;7.68;100.00;162573.34;5071606;28;20052;-58
2022/05/29 03:34:37;;;;;;;8.60;5.95;;;;;;;7.68;100.00;162572.03;5073594;28;20028;-58
2022/05/29 03:37:02;;;;;;;12.43;5.35;;;;;;;7.65;100.00;162563.94;5072282;28;20043;-58
2022/05/29 03:39:27;;;;;;;12.98;6.97;;;;;;;7.59;100.00;162550.47;5073855;28;20069;-58
2022/05/29 03:41:53;;;;;;;9.13;4.68;;;;;;;7.54;100.00;162537.00;5071502;28;20044;-58
2022/05/29 03:44:22;;;;;;;10.13;4.60;;;;;;;7.49;100.00;162523.50;5073610;28;20372;-58
2022/05/29 03:46:47;;;;;;;10.35;5.10;;;;;;;7.46;100.00;162515.44;5071835;28;20059;-59
2022/05/29 03:49:15;;;;;;;7.50;4.68;;;;;;;7.48;100.00;162520.84;5073221;28;20479;-58
2022/05/29 03:51:41;;;;;;;8.25;4.57;;;;;;;7.46;100.00;162515.44;5071771;28;20062;-58
2022/05/29 03:54:08;;;;;;;21.80;6.10;;;;;;;7.49;100.00;162523.50;5073110;28;20460;-58
2022/05/29 03:56:34;;;;;;;9.95;4.97;;;;;;;7.55;100.00;162539.72;5071831;28;20051;-58
2022/05/29 03:58:59;;;;;;;8.48;5.18;;;;;;;7.56;100.00;162541.03;5073428;28;20024;-58
2022/05/29 04:01:25;;;;;;;14.75;5.88;;;;;;;7.58;100.00;162547.75;5071925;28;20486;-58
2022/05/29 04:03:54;;;;;;;15.20;5.18;;;;;;;7.62;100.00;162558.56;5073036;28;20171;-58
2022/05/29 04:06:24;;;;;;;13.60;5.97;;;;;;;7.69;100.00;162574.72;5071636;28;20040;-58
2022/05/29 04:12:04;;;;;;;10.90;5.65;;;;;;;7.70;100.00;162578.75;5068532;28;20553;-57
2022/05/29 04:14:30;;;;;;;9.20;5.30;;;;;;;7.78;100.00;162600.31;5073002;28;20480;-58
2022/05/29 04:16:55;;;;;;;18.65;7.75;;;;;;;7.85;100.00;162617.84;5071127;28;20101;-58
2022/05/29 04:19:20;;;;;;;9.20;5.03;;;;;;;7.92;100.00;162636.72;5072932;28;20024;-57
2022/05/29 04:21:48;;;;;;;13.73;7.32;;;;;;;7.93;100.00;162639.38;5071181;28;20051;-58
2022/05/29 04:24:16;;;;;;;14.38;6.60;;;;;;;7.96;100.00;162644.78;5072992;28;20045;-58
2022/05/29 04:26:41;;;;;;;15.38;6.28;;;;;;;7.99;100.00;162652.88;5071141;28;20039;-57
2022/05/29 04:29:06;;;;;;;21.02;6.78;;;;;;;8.03;100.00;162663.63;5072732;28;20020;-57
2022/05/29 04:31:33;;;;;;;10.02;5.43;;;;;;;8.03;100.00;162663.63;5071620;28;20044;-57
2022/05/29 04:33:58;;;;;;;16.55;5.57;;;;;;;8.06;100.00;162671.75;5071892;28;20028;-57
2022/05/29 04:36:24;;;;;;;10.10;5.43;;;;;;;8.05;100.00;162669.03;5071321;28;20407;-57
2022/05/29 04:38:50;;;;;;;6.75;4.85;;;;;;;8.10;100.00;162682.50;5072419;28;20082;-57
2022/05/29 04:41:16;;;;;;;23.60;7.13;;;;;;;8.08;100.00;162678.47;5070975;28;20039;-57
2022/05/29 04:43:42;;;;;;;13.45;6.22;;;;;;;8.07;100.00;162674.44;5071730;28;20032;-58
2022/05/29 04:46:07;;;;;;;14.65;7.20;;;;;;;8.04;100.00;162666.34;5071110;28;20028;-57
2022/05/29 04:48:32;;;;;;;15.43;6.15;;;;;;;8.17;100.00;162701.38;5072443;28;20043;-57
2022/05/29 04:51:00;;;;;;;9.32;5.38;;;;;;;8.19;100.00;162706.78;5070936;28;20028;-58
2022/05/29 04:53:27;;;;;;;10.43;5.25;;;;;;;8.29;100.00;162731.03;5072367;28;20036;-57
2022/05/29 04:55:55;;;;;;;9.25;5.88;;;;;;;8.39;100.00;162757.97;5070595;28;20059;-58
2022/05/29 04:58:23;;;;;;;17.23;6.40;;;;;;;8.54;100.00;162797.16;5072152;28;20028;-57
2022/05/29 05:00:48;;;;;;;18.60;6.35;;;;;;;8.66;100.00;162828.16;5070442;28;20039;-57
2022/05/29 05:03:14;;;;;;;12.80;5.13;;;;;;;8.68;100.00;162833.50;5072143;28;20017;-57
2022/05/29 05:05:39;;;;;;;16.55;5.70;;;;;;;8.79;100.00;162863.19;5070512;28;20033;-58
2022/05/29 05:08:04;;;;;;;13.55;5.97;;;;;;;8.85;100.00;162878.03;5072144;28;20352;-58
2022/05/29 05:10:30;;;;;;;8.27;5.18;;;;;;;8.85;100.00;162879.38;5070351;28;20028;-57
2022/05/29 05:12:55;;;;;;;10.43;6.05;;;;;;;8.81;100.00;162868.59;5071430;28;20032;-57
2022/05/29 05:15:21;;;;;;;10.95;5.63;;;;;;;8.85;100.00;162879.38;5070468;28;20121;-57
2022/05/29 05:17:46;;;;;;;11.25;5.22;;;;;;;8.91;100.00;162892.81;5071099;28;20044;-57
2022/05/29 05:20:12;;;;;;;6.22;5.55;;;;;;;8.92;100.00;162896.91;5070654;28;20360;-57
2022/05/29 05:22:38;;;;;;;8.15;4.60;;;;;;;8.94;100.00;162900.94;5071512;28;20361;-58
2022/05/29 05:25:04;;;;;;;9.30;5.95;;;;;;;8.99;100.00;162914.41;5070508;28;20041;-57
2022/05/29 05:27:29;;;;;;;11.65;5.30;;;;;;;9.01;100.00;162919.81;5071253;28;20028;-57
2022/05/29 05:29:55;;;;;;;12.25;5.05;;;;;;;9.06;100.00;162933.28;5071656;28;20029;-57
2022/05/29 05:32:20;;;;;;;6.65;4.35;;;;;;;8.97;100.00;162910.38;5069978;28;20059;-57
2022/05/29 05:34:45;;;;;;;16.30;5.90;;;;;;;8.99;100.00;162914.41;5071134;28;20078;-57
2022/05/29 05:37:12;;;;;;;6.05;4.78;;;;;;;8.99;100.00;162914.41;5069956;28;20542;-57
2022/05/29 05:39:37;;;;;;;17.92;5.55;;;;;;;8.98;100.00;162911.72;5071068;28;20035;-57
2022/05/29 05:42:05;;;;;;;13.95;4.97;;;;;;;8.99;100.00;162914.41;5068659;28;20036;-57
2022/05/29 05:44:30;;;;;;;10.95;4.95;;;;;;;8.99;100.00;162915.78;5071624;28;20024;-58
2022/05/29 05:46:56;;;;;;;11.65;5.03;;;;;;;8.99;100.00;162915.78;5069277;28;20101;-57
2022/05/29 05:49:23;;;;;;;19.85;6.20;;;;;;;9.09;100.00;162940.03;5071064;28;20264;-58
2022/05/29 05:51:50;;;;;;;9.90;5.97;;;;;;;9.26;100.00;162984.56;5069557;28;20044;-57
2022/05/29 05:54:16;;;;;;;16.40;6.80;;;;;;;9.36;100.00;163011.50;5069888;28;20020;-57
2022/05/29 05:56:43;;;;;;;14.25;5.70;;;;;;;9.58;100.00;163068.16;5069542;28;20512;-58
2022/05/29 05:59:09;;;;;;;6.95;5.25;;;;;;;9.66;100.00;163091.13;5071106;28;20069;-58
2022/05/29 06:01:35;;;;;;;10.32;3.95;;;;;;;9.86;100.00;163141.03;5069443;28;20083;-58
2022/05/29 06:04:00;;;;;;;7.10;4.88;;;;;;;10.00;100.00;163178.81;5070778;28;20028;-58
2022/05/29 06:06:25;;;;;;;9.38;5.88;;;;;;;10.10;100.00;163204.44;5069426;28;20040;-58
2022/05/29 06:08:50;;;;;;;12.63;6.22;;;;;;;10.04;100.00;163188.25;5070631;28;20028;-58
2022/05/29 06:11:16;;;;;;;19.65;5.93;;;;;;;10.07;100.00;163197.69;5069619;28;20032;-58
2022/05/29 06:13:41;;;;;;;13.43;4.90;;;;;;;10.09;100.00;163203.06;5070335;28;20549;-58
2022/05/29 06:16:08;;;;;;;10.40;4.82;;;;;;;10.20;100.00;163230.06;5069080;28;20044;-58
2022/05/29 06:18:34;;;;;;;17.40;5.55;;;;;;;10.35;100.00;163270.56;5070995;28;20020;-58
2022/05/29 06:21:02;;;;;;;10.23;4.35;;;;;;;10.39;100.00;163281.38;5069232;28;20032;-58
2022/05/29 06:23:28;;;;;;;13.02;4.35;;;;;;;10.54;100.00;163319.19;5070159;28;20028;-58
2022/05/29 06:25:54;;;;;;;13.13;4.32;;;;;;;10.69;100.00;163359.66;5068784;28;20411;-58
2022/05/29 06:28:19;;;;;;;17.83;6.18;;;;;;;10.82;100.00;163392.09;5070979;28;20024;-58
2022/05/29 06:30:44;;;;;;;11.20;4.07;;;;;;;10.70;100.00;163362.38;5068830;28;20446;-58
2022/05/29 06:33:11;;;;;;;11.23;5.72;;;;;;;10.53;100.00;163316.53;5070359;28;20020;-58
2022/05/29 06:35:36;;;;;;;8.60;4.45;;;;;;;10.75;100.00;163375.91;5069200;28;20051;-58
2022/05/29 06:38:02;;;;;;;8.35;4.95;;;;;;;10.84;100.00;163397.47;5069862;28;20021;-58
2022/05/29 06:40:27;;;;;;;7.40;3.85;;;;;;;11.00;100.00;163440.69;5069329;28;20101;-58
2022/05/29 06:42:52;;;;;;;13.77;4.57;;;;;;;11.08;100.00;163462.28;5070366;28;20376;-58
2022/05/29 06:45:18;;;;;;;6.15;3.58;;;;;;;11.15;100.00;163479.88;5068938;28;20444;-58
2022/05/29 06:47:43;;;;;;;16.40;5.00;;;;;;;11.14;100.00;163477.16;5070344;28;20028;-58
2022/05/29 06:50:10;;;;;;;11.07;3.75;;;;;;;11.10;100.00;163467.72;5069111;28;20028;-58
2022/05/29 06:52:35;;;;;;;13.20;6.47;;;;;;;11.01;100.00;163442.06;5070247;28;20112;-58
2022/05/29 06:55:03;;;;;;;10.73;4.45;;;;;;;10.96;100.00;163429.91;5070050;28;20028;-58
2022/05/29 06:57:37;;;;;;;6.03;3.15;;;;;;;10.84;100.00;163397.47;5068720;28;20041;-58
2022/05/29 07:08:19;;;;;;;7.45;4.53;;;;;;;11.11;100.00;163470.41;5073775;28;20047;-58
2022/05/29 07:10:45;;;;;;;9.38;4.43;;;;;;;11.38;100.00;163540.63;5072781;28;20040;-57
2022/05/29 07:13:11;;;;;;;11.25;5.78;;;;;;;11.67;100.00;163616.22;5074053;28;20073;-57
2022/05/29 07:15:37;;;;;;;10.65;4.25;;;;;;;11.89;100.00;163672.97;5072553;28;20438;-57
2022/05/29 07:18:03;;;;;;;11.65;4.05;;;;;;;11.85;100.00;163663.50;5074095;28;20032;-58
2022/05/29 07:20:29;;;;;;;10.43;3.80;;;;;;;11.73;100.00;163632.44;5072724;28;20036;-57
2022/05/29 07:22:54;;;;;;;13.32;3.50;;;;;;;11.79;100.00;163645.97;5073662;28;20024;-58
2022/05/29 07:25:19;;;;;;;15.85;4.68;;;;;;;11.81;100.00;163651.34;5072483;28;20040;-57
2022/05/29 07:27:45;;;;;;;11.13;4.78;;;;;;;11.73;100.00;163632.44;5073778;28;20028;-57
2022/05/29 07:30:11;;;;;;;13.93;4.75;;;;;;;11.82;100.00;163654.06;5072383;28;20117;-57
2022/05/29 07:32:36;;;;;;;10.43;5.28;;;;;;;11.89;100.00;163674.34;5073782;28;20048;-58
2022/05/29 07:35:02;;;;;;;16.10;4.70;;;;;;;11.95;100.00;163689.16;5073555;28;20016;-58
2022/05/29 07:37:28;;;;;;;10.35;3.55;;;;;;;12.30;100.00;163781.13;5071889;28;20044;-58
2022/05/29 07:39:54;;;;;;;13.77;3.53;;;;;;;12.30;100.00;163781.13;5073541;28;20059;-58
2022/05/29 07:45:07;;;;;;;8.95;3.20;;;;;;;12.42;100.00;163810.84;5072099;28;20148;-57
2022/05/29 07:47:41;;;;;;;10.77;2.88;;;;;;;12.31;100.00;163783.84;5073272;28;20035;-57
2022/05/29 07:50:09;;;;;;;11.50;4.32;;;;;;;12.40;100.00;163806.78;5072280;28;20028;-57
2022/05/29 07:52:35;;;;;;;15.68;4.82;;;;;;;12.42;100.00;163810.84;5073098;28;20126;-58
2022/05/29 07:55:00;;;;;;;8.73;4.63;;;;;;;12.40;100.00;163805.47;5073247;28;20020;-58
2022/05/29 07:57:26;;;;;;;8.30;3.28;;;;;;;12.26;100.00;163770.28;5071904;28;20063;-58
2022/05/29 07:59:52;;;;;;;8.57;3.42;;;;;;;12.30;100.00;163781.13;5072681;28;20016;-58
2022/05/29 08:02:17;;;;;;;14.98;4.32;;;;;;;12.38;100.00;163802.75;5071745;28;20173;-58
2022/05/29 08:04:43;;;;;;;7.20;2.85;;;;;;;12.46;100.00;163821.66;5073043;28;20032;-58
2022/05/29 08:07:09;;;;;;;6.85;2.92;;;;;;;12.43;100.00;163813.53;5071237;28;20411;-58
2022/05/29 08:09:34;;;;;;;9.45;4.00;;;;;;;12.77;100.00;163904.09;5073124;28;20529;-58
2022/05/29 08:11:59;;;;;;;8.35;2.90;;;;;;;12.81;100.00;163914.88;5071433;28;20055;-58
2022/05/29 08:14:25;;;;;;;7.40;3.53;;;;;;;13.07;100.00;163981.16;5072600;28;20098;-57
2022/05/29 08:16:50;;;;;;;8.82;3.28;;;;;;;13.07;100.00;163981.16;5070426;28;20078;-58
2022/05/29 08:19:16;;;;;;;7.65;2.75;;;;;;;13.02;100.00;163970.31;5072698;28;20036;-58
2022/05/29 08:21:43;;;;;;;7.85;3.58;;;;;;;12.83;100.00;163918.97;5069592;28;20036;-58
2022/05/29 08:32:20;;;;;;;27.58;4.35;;;;;;;12.33;100.00;163789.22;5071172;28;20110;-58
2022/05/29 08:34:46;;;;;;;11.75;5.40;;;;;;;12.33;100.00;163787.88;5072421;28;20040;-57
2022/05/29 08:37:11;;;;;;;9.32;3.78;;;;;;;12.20;100.00;163754.09;5070978;28;20187;-58
2022/05/29 08:39:37;;;;;;;6.50;3.28;;;;;;;12.20;100.00;163754.09;5072322;28;20031;-58
2022/05/29 08:42:02;;;;;;;9.35;2.50;;;;;;;12.05;100.00;163714.94;5071005;28;20109;-58
2022/05/29 08:44:40;;;;;;;8.52;3.53;;;;;;;12.02;100.00;163708.19;5072352;28;20024;-58
2022/05/29 08:47:05;;;;;;;4.45;2.40;;;;;;;11.80;100.00;163648.69;5071156;28;20094;-58
2022/05/29 08:49:38;;;;;;;12.27;4.30;;;;;;;11.77;100.00;163640.56;5072256;28;20395;-58
2022/05/29 08:52:47;;;;;;;19.88;3.20;;;;;;;11.89;100.00;163672.97;5070612;28;20040;-58
2022/05/29 08:55:30;;;;;;;13.27;3.00;;;;;;;12.10;100.00;163728.41;5071142;28;20063;-58
2022/05/29 08:58:05;;;;;;;13.77;3.78;;;;;;;12.19;100.00;163752.75;5072348;28;20035;-58
2022/05/29 09:00:47;;;;;;;9.05;3.55;;;;;;;12.36;100.00;163797.34;5070403;28;20078;-58
2022/05/29 09:03:50;;;;;;;10.52;2.70;;;;;;;12.61;100.00;163862.22;5072179;28;20154;-58
2022/05/29 09:06:22;;;;;;;9.48;3.38;;;;;;;12.85;100.00;163924.34;5070665;28;20029;-58
2022/05/29 09:09:12;;;;;;;15.13;3.65;;;;;;;13.02;100.00;163970.31;5071748;28;20108;-58
2022/05/29 09:11:55;;;;;;;13.52;3.70;;;;;;;13.13;100.00;163997.38;5070666;28;20047;-58
2022/05/29 09:14:33;;;;;;;6.07;2.38;;;;;;;13.15;100.00;164002.75;5071611;28;20036;-58
2022/05/29 09:17:04;;;;;;;6.28;2.55;;;;;;;13.10;100.00;163989.25;5070189;28;20100;-57
2022/05/29 09:19:47;;;;;;;8.50;3.03;;;;;;;13.05;100.00;163975.75;5071714;28;20111;-58
2022/05/29 09:22:19;;;;;;;8.57;2.95;;;;;;;13.35;100.00;164055.50;5069852;28;20094;-57
2022/05/29 09:24:57;;;;;;;14.73;4.00;;;;;;;13.55;100.00;164106.97;5071515;28;20271;-58
2022/05/29 09:27:23;;;;;;;9.15;3.40;;;;;;;13.66;100.00;164135.34;5070297;28;20045;-57
2022/05/29 09:29:52;;;;;;;8.55;4.35;;;;;;;13.79;100.00;164170.50;5070763;28;20016;-58
2022/05/29 09:32:21;;;;;;;8.75;2.95;;;;;;;13.96;100.00;164216.47;5070434;28;20075;-58
2022/05/29 09:35:05;;;;;;;7.55;2.00;;;;;;;14.08;100.00;164246.25;5071155;28;20044;-58
2022/05/29 09:37:44;;;;;;;11.40;4.07;;;;;;;14.07;100.00;164243.53;5069783;28;20055;-58
2022/05/29 09:40:17;;;;;;;12.57;2.78;;;;;;;14.18;100.00;164273.31;5071654;28;20043;-58
2022/05/29 09:42:43;;;;;;;8.00;2.75;;;;;;;13.96;100.00;164216.47;5069379;28;20036;-58
2022/05/29 09:45:32;;;;;;;5.10;1.73;;;;;;;13.69;100.00;164143.44;5071730;28;20032;-57
2022/05/29 09:50:44;;;;;;;10.65;3.85;;;;;;;13.76;100.00;164163.75;5070679;28;20035;-58
2022/05/29 09:53:17;;;;;;;6.67;2.10;;;;;;;13.89;100.00;164197.53;5069558;28;20041;-57
2022/05/29 09:55:52;;;;;;;4.07;2.38;;;;;;;13.73;100.00;164154.28;5071114;28;20028;-58
2022/05/29 09:58:24;;;;;;;3.63;2.03;;;;;;;13.35;100.00;164054.16;5069278;28;20503;-58
2022/05/29 10:00:56;;;;;;;7.72;1.98;;;;;;;13.15;100.00;164002.75;5069409;28;20024;-58
2022/05/29 10:03:43;;;;;;;6.65;2.50;;;;;;;13.40;100.00;164069.09;5070946;28;20013;-58
2022/05/29 10:06:22;;;;;;;6.55;2.25;;;;;;;13.37;100.00;164060.91;5069493;28;20379;-58
2022/05/29 10:08:50;;;;;;;6.35;2.10;;;;;;;13.13;100.00;163997.38;5070675;28;20064;-58
2022/05/29 10:11:30;;;;;;;5.15;1.60;;;;;;;13.30;100.00;164043.31;5069618;28;20372;-58
2022/05/29 10:13:56;;;;;;;7.80;1.85;;;;;;;13.49;100.00;164092.06;5070375;28;20098;-58
2022/05/29 10:16:37;;;;;;;5.57;2.53;;;;;;;13.46;100.00;164083.94;5069388;28;20499;-58
2022/05/29 10:19:08;;;;;;;9.02;2.97;;;;;;;13.50;100.00;164094.78;5070948;28;20052;-58
2022/05/29 10:21:42;;;;;;;7.72;2.38;;;;;;;13.79;100.00;164170.50;5069175;28;20403;-57
2022/05/29 10:24:16;;;;;;;9.02;2.30;;;;;;;14.18;100.00;164273.31;5069390;28;20049;-57
2022/05/29 10:26:48;;;;;;;8.00;3.53;;;;;;;14.42;100.00;164336.88;5069119;28;20055;-58
2022/05/29 10:29:21;;;;;;;4.07;2.55;;;;;;;14.70;100.00;164408.66;5070544;28;20020;-57
2022/05/29 10:31:50;;;;;;;7.78;1.75;;;;;;;14.57;100.00;164376.09;5069001;28;20550;-58
2022/05/29 10:34:26;;;;;;;12.70;2.47;;;;;;;14.64;100.00;164393.72;5070588;28;20020;-58
2022/05/29 10:36:52;;;;;;;3.40;1.42;;;;;;;14.90;100.00;164462.78;5069296;28;20101;-58
2022/05/29 10:39:24;;;;;;;12.00;3.25;;;;;;;14.46;100.00;164346.34;5070668;28;20024;-58
2022/05/29 10:41:52;;;;;;;5.25;2.60;;;;;;;13.93;100.00;164208.38;5067983;28;20169;-58
2022/05/29 10:44:42;;;;;;;8.80;3.33;;;;;;;13.77;100.00;164165.06;5070489;28;20024;-58
2022/05/29 10:47:16;;;;;;;9.13;3.92;;;;;;;13.39;100.00;164065.00;5068912;28;20042;-57
2022/05/29 10:50:08;;;;;;;8.07;2.45;;;;;;;13.11;100.00;163991.97;5070068;28;20059;-58
2022/05/29 10:52:35;;;;;;;9.38;3.33;;;;;;;12.75;100.00;163897.34;5069321;28;20086;-58
2022/05/29 10:55:19;;;;;;;6.80;2.97;;;;;;;12.67;100.00;163878.44;5070306;28;20388;-57
2022/05/29 10:57:53;;;;;;;6.75;1.88;;;;;;;12.65;100.00;163873.00;5068795;28;20045;-58
2022/05/29 11:00:38;;;;;;;9.40;3.38;;;;;;;13.00;100.00;163963.56;5068722;28;20464;-57
2022/05/29 11:03:35;;;;;;;9.80;1.95;;;;;;;13.44;100.00;164078.56;5070532;28;20531;-58
2022/05/29 11:06:22;;;;;;;9.47;3.20;;;;;;;13.70;100.00;164146.16;5068043;28;20103;-58
2022/05/29 11:09:12;;;;;;;11.52;4.50;;;;;;;13.78;100.00;164167.78;5070408;28;20036;-58
2022/05/29 11:11:44;;;;;;;10.68;2.75;;;;;;;13.95;100.00;164213.78;5068450;28;20106;-58
2022/05/29 11:14:42;;;;;;;11.30;4.00;;;;;;;14.21;100.00;164280.06;5070025;28;20154;-58
2022/05/29 11:17:13;;;;;;;;;;;;;;;13.95;100.00;164213.78;5069281;28;20048;-58
2022/05/29 11:20:02;;;;;;;3.38;1.67;;;;;;;13.70;100.00;164146.16;5069865;28;19931;-58
2022/05/29 11:22:38;;;;;;;6.65;1.73;;;;;;;13.73;100.00;164154.28;5068491;28;20445;-58
2022/05/29 11:25:14;;;;;;;3.03;1.95;;;;;;;14.14;100.00;164262.47;5070098;28;20068;-58
2022/05/29 11:28:14;;;;;;;6.60;2.13;;;;;;;14.19;100.00;164275.97;5068481;28;20066;-58
2022/05/29 11:31:03;;;;;;;6.63;2.15;;;;;;;14.52;100.00;164362.59;5068236;28;20055;-58
2022/05/29 11:33:57;;;;;;;6.80;2.08;;;;;;;14.88;100.00;164456.00;5069679;28;20403;-58
2022/05/29 11:36:56;;;;;;;2.83;1.20;;;;;;;15.25;100.00;164552.09;5068515;28;20044;-58
2022/05/29 11:39:29;;;;;;;4.45;2.08;;;;;;;14.94;100.00;164470.88;5070006;28;20037;-57
2022/05/29 11:42:05;;;;;;;8.13;2.17;;;;;;;15.04;100.00;164497.94;5067979;28;20048;-58
2022/05/29 11:45:02;;;;;;;7.07;2.92;;;;;;;14.39;100.00;164327.41;5070053;28;20023;-58
2022/05/29 11:52:55;;;;;;;7.40;2.17;;;;;;;13.66;100.00;164135.34;5072505;28;20040;-58
2022/05/29 11:55:24;;;;;;;3.63;1.52;;;;;;;13.75;100.00;164159.66;5072156;28;20459;-58
2022/05/29 11:57:55;;;;;;;3.95;1.85;;;;;;;13.58;100.00;164116.41;5072602;28;20104;-58
2022/05/29 12:00:42;;;;;;;12.70;3.22;;;;;;;13.79;100.00;164170.50;5072064;28;20039;-58
2022/05/29 12:03:31;;;;;;;3.83;1.80;;;;;;;13.48;100.00;164089.34;5073314;28;20032;-58
2022/05/29 12:06:03;;;;;;;6.55;2.00;;;;;;;13.60;100.00;164121.78;5071630;28;20040;-58
2022/05/29 12:08:43;;;;;;;8.82;1.80;;;;;;;13.78;100.00;164167.78;5073351;28;20028;-58
2022/05/29 12:11:30;;;;;;;7.15;2.45;;;;;;;14.00;100.00;164224.59;5071565;28;20111;-58